sensor_id;sensor_type;location;lat;lon;timestamp;P1;durP1;ratioP1;P2;durP2;ratioP2
26253;SDS011;53339;51.378;0.094;2023-02-10T00:00:45;11.73;;;5.57;;
26253;SDS011;53339;51.378;0.094;2023-02-10T00:04:10;9.43;;;5.45;;
26253;SDS011;53339;51.378;0.094;2023-02-10T00:10:31;19.63;;;7.95;;
26253;SDS011;53339;51.378;0.094;2023-02-10T00:13:30;13.32;;;7.65;;
26253;SDS011;53339;51.378;0.094;2023-02-10T00:16:36;20.05;;;10.75;;
26253;SDS011;53339;51.378;0.094;2023-02-10T00:19:32;14.90;;;7.65;;
26253;SDS011;53339;51.378;0.094;2023-02-10T00:22:17;18.63;;;11.27;;
26253;SDS011;53339;51.378;0.094;2023-02-10T00:25:31;14.50;;;10.43;;
26253;SDS011;53339;51.378;0.094;2023-02-10T00:28:23;15.15;;;7.45;;
26253;SDS011;53339;51.378;0.094;2023-02-10T00:31:28;11.40;;;6.93;;
26253;SDS011;53339;51.378;0.094;2023-02-10T00:35:29;14.52;;;11.38;;
26253;SDS011;53339;51.378;0.094;2023-02-10T00:38:15;12.32;;;6.90;;
26253;SDS011;53339;51.378;0.094;2023-02-10T00:41:12;11.77;;;5.45;;
26253;SDS011;53339;51.378;0.094;2023-02-10T00:44:29;15.43;;;12.07;;
26253;SDS011;53339;51.378;0.094;2023-02-10T00:47:04;16.30;;;12.32;;
26253;SDS011;53339;51.378;0.094;2023-02-10T00:50:05;15.48;;;9.63;;
26253;SDS011;53339;51.378;0.094;2023-02-10T00:53:15;7.97;;;5.03;;
26253;SDS011;53339;51.378;0.094;2023-02-10T00:56:31;16.38;;;7.55;;
26253;SDS011;53339;51.378;0.094;2023-02-10T00:59:26;13.95;;;10.90;;
26253;SDS011;53339;51.378;0.094;2023-02-10T01:02:58;6.85;;;4.47;;
26253;SDS011;53339;51.378;0.094;2023-02-10T01:06:02;12.23;;;6.30;;
26253;SDS011;53339;51.378;0.094;2023-02-10T01:09:38;9.93;;;6.25;;
26253;SDS011;53339;51.378;0.094;2023-02-10T01:12:59;10.00;;;7.50;;
26253;SDS011;53339;51.378;0.094;2023-02-10T01:15:46;13.63;;;10.27;;
26253;SDS011;53339;51.378;0.094;2023-02-10T01:18:41;15.70;;;6.40;;
26253;SDS011;53339;51.378;0.094;2023-02-10T01:21:56;10.90;;;9.13;;
26253;SDS011;53339;51.378;0.094;2023-02-10T01:24:57;15.18;;;6.60;;
26253;SDS011;53339;51.378;0.094;2023-02-10T01:28:09;13.43;;;7.10;;
26253;SDS011;53339;51.378;0.094;2023-02-10T01:31:25;14.75;;;9.13;;
26253;SDS011;53339;51.378;0.094;2023-02-10T01:34:24;6.10;;;3.92;;
26253;SDS011;53339;51.378;0.094;2023-02-10T01:38:28;16.55;;;6.70;;
26253;SDS011;53339;51.378;0.094;2023-02-10T01:41:44;6.47;;;3.35;;
26253;SDS011;53339;51.378;0.094;2023-02-10T01:48:17;17.70;;;10.38;;
26253;SDS011;53339;51.378;0.094;2023-02-10T01:51:25;7.43;;;3.75;;
26253;SDS011;53339;51.378;0.094;2023-02-10T01:55:06;14.75;;;7.07;;
26253;SDS011;53339;51.378;0.094;2023-02-10T01:58:34;16.42;;;9.55;;
26253;SDS011;53339;51.378;0.094;2023-02-10T02:04:06;7.68;;;4.43;;
26253;SDS011;53339;51.378;0.094;2023-02-10T02:06:38;12.90;;;5.70;;
26253;SDS011;53339;51.378;0.094;2023-02-10T02:09:56;12.85;;;6.55;;
26253;SDS011;53339;51.378;0.094;2023-02-10T02:27:03;12.40;;;6.35;;
26253;SDS011;53339;51.378;0.094;2023-02-10T02:36:39;16.63;;;6.70;;
26253;SDS011;53339;51.378;0.094;2023-02-10T02:39:08;14.70;;;6.95;;
26253;SDS011;53339;51.378;0.094;2023-02-10T02:45:19;5.88;;;4.53;;
26253;SDS011;53339;51.378;0.094;2023-02-10T02:52:06;15.50;;;7.82;;
26253;SDS011;53339;51.378;0.094;2023-02-10T03:01:50;14.55;;;6.53;;
26253;SDS011;53339;51.378;0.094;2023-02-10T03:05:40;4.72;;;3.60;;
26253;SDS011;53339;51.378;0.094;2023-02-10T03:09:09;14.13;;;9.73;;
26253;SDS011;53339;51.378;0.094;2023-02-10T03:12:00;9.20;;;4.93;;
26253;SDS011;53339;51.378;0.094;2023-02-10T03:14:55;10.85;;;9.75;;
26253;SDS011;53339;51.378;0.094;2023-02-10T03:18:26;12.65;;;5.55;;
26253;SDS011;53339;51.378;0.094;2023-02-10T03:21:51;5.53;;;4.20;;
26253;SDS011;53339;51.378;0.094;2023-02-10T03:25:48;12.48;;;7.68;;
26253;SDS011;53339;51.378;0.094;2023-02-10T03:28:59;9.35;;;6.07;;
26253;SDS011;53339;51.378;0.094;2023-02-10T03:32:33;7.32;;;3.83;;
26253;SDS011;53339;51.378;0.094;2023-02-10T03:35:37;7.50;;;3.85;;
26253;SDS011;53339;51.378;0.094;2023-02-10T03:42:56;11.45;;;5.68;;
26253;SDS011;53339;51.378;0.094;2023-02-10T03:46:45;12.65;;;6.43;;
26253;SDS011;53339;51.378;0.094;2023-02-10T03:50:34;7.13;;;4.35;;
26253;SDS011;53339;51.378;0.094;2023-02-10T03:53:36;7.15;;;3.92;;
26253;SDS011;53339;51.378;0.094;2023-02-10T03:56:40;17.17;;;5.65;;
26253;SDS011;53339;51.378;0.094;2023-02-10T03:59:54;8.70;;;5.13;;
26253;SDS011;53339;51.378;0.094;2023-02-10T04:03:02;6.57;;;4.53;;
26253;SDS011;53339;51.378;0.094;2023-02-10T04:06:26;11.18;;;8.60;;
26253;SDS011;53339;51.378;0.094;2023-02-10T04:09:48;11.35;;;9.45;;
26253;SDS011;53339;51.378;0.094;2023-02-10T04:13:05;9.18;;;4.70;;
26253;SDS011;53339;51.378;0.094;2023-02-10T04:16:26;13.70;;;12.07;;
26253;SDS011;53339;51.378;0.094;2023-02-10T04:19:14;12.93;;;8.48;;
26253;SDS011;53339;51.378;0.094;2023-02-10T04:22:25;6.20;;;4.18;;
26253;SDS011;53339;51.378;0.094;2023-02-10T04:25:41;12.60;;;4.40;;
26253;SDS011;53339;51.378;0.094;2023-02-10T04:28:44;12.68;;;5.55;;
26253;SDS011;53339;51.378;0.094;2023-02-10T04:31:32;8.43;;;4.60;;
26253;SDS011;53339;51.378;0.094;2023-02-10T04:34:43;7.25;;;4.35;;
26253;SDS011;53339;51.378;0.094;2023-02-10T04:37:11;12.68;;;6.63;;
26253;SDS011;53339;51.378;0.094;2023-02-10T04:40:15;12.00;;;6.63;;
26253;SDS011;53339;51.378;0.094;2023-02-10T04:43:52;10.02;;;5.72;;
26253;SDS011;53339;51.378;0.094;2023-02-10T04:47:27;15.02;;;10.63;;
26253;SDS011;53339;51.378;0.094;2023-02-10T04:53:22;7.80;;;4.55;;
26253;SDS011;53339;51.378;0.094;2023-02-10T04:56:49;9.30;;;5.22;;
26253;SDS011;53339;51.378;0.094;2023-02-10T05:00:07;7.85;;;4.60;;
26253;SDS011;53339;51.378;0.094;2023-02-10T05:03:04;11.93;;;6.20;;
26253;SDS011;53339;51.378;0.094;2023-02-10T05:05:58;10.40;;;5.95;;
26253;SDS011;53339;51.378;0.094;2023-02-10T05:08:27;12.73;;;9.45;;
26253;SDS011;53339;51.378;0.094;2023-02-10T05:11:29;14.73;;;10.05;;
26253;SDS011;53339;51.378;0.094;2023-02-10T05:14:06;9.23;;;5.15;;
26253;SDS011;53339;51.378;0.094;2023-02-10T05:17:11;13.75;;;5.28;;
26253;SDS011;53339;51.378;0.094;2023-02-10T05:20:20;10.07;;;6.05;;
26253;SDS011;53339;51.378;0.094;2023-02-10T05:23:25;11.10;;;6.63;;
26253;SDS011;53339;51.378;0.094;2023-02-10T05:30:10;8.23;;;4.47;;
26253;SDS011;53339;51.378;0.094;2023-02-10T05:33:07;11.55;;;10.35;;
26253;SDS011;53339;51.378;0.094;2023-02-10T05:36:12;10.00;;;5.05;;
26253;SDS011;53339;51.378;0.094;2023-02-10T05:39:37;16.25;;;6.63;;
26253;SDS011;53339;51.378;0.094;2023-02-10T05:42:57;8.50;;;4.75;;
26253;SDS011;53339;51.378;0.094;2023-02-10T05:46:57;23.25;;;4.88;;
26253;SDS011;53339;51.378;0.094;2023-02-10T05:50:18;8.70;;;4.03;;
26253;SDS011;53339;51.378;0.094;2023-02-10T05:53:07;9.75;;;4.60;;
26253;SDS011;53339;51.378;0.094;2023-02-10T05:56:35;11.38;;;5.13;;
26253;SDS011;53339;51.378;0.094;2023-02-10T06:00:03;11.60;;;6.15;;
26253;SDS011;53339;51.378;0.094;2023-02-10T06:03:00;12.40;;;6.78;;
26253;SDS011;53339;51.378;0.094;2023-02-10T06:06:13;7.13;;;5.57;;
26253;SDS011;53339;51.378;0.094;2023-02-10T06:09:29;7.22;;;4.78;;
26253;SDS011;53339;51.378;0.094;2023-02-10T06:12:37;11.52;;;5.03;;
26253;SDS011;53339;51.378;0.094;2023-02-10T06:15:36;6.97;;;5.03;;
26253;SDS011;53339;51.378;0.094;2023-02-10T06:18:34;11.18;;;10.05;;
26253;SDS011;53339;51.378;0.094;2023-02-10T06:22:22;13.43;;;6.40;;
26253;SDS011;53339;51.378;0.094;2023-02-10T06:25:36;6.25;;;3.83;;
26253;SDS011;53339;51.378;0.094;2023-02-10T06:35:54;10.77;;;6.35;;
26253;SDS011;53339;51.378;0.094;2023-02-10T06:39:15;10.48;;;6.13;;
26253;SDS011;53339;51.378;0.094;2023-02-10T06:42:37;9.32;;;5.05;;
26253;SDS011;53339;51.378;0.094;2023-02-10T06:45:25;12.57;;;9.50;;
26253;SDS011;53339;51.378;0.094;2023-02-10T06:51:53;15.10;;;9.57;;
26253;SDS011;53339;51.378;0.094;2023-02-10T06:54:49;7.38;;;6.70;;
26253;SDS011;53339;51.378;0.094;2023-02-10T06:57:17;11.43;;;6.25;;
26253;SDS011;53339;51.378;0.094;2023-02-10T07:00:23;14.48;;;6.47;;
26253;SDS011;53339;51.378;0.094;2023-02-10T07:03:01;6.55;;;3.60;;
26253;SDS011;53339;51.378;0.094;2023-02-10T07:05:58;7.63;;;6.35;;
26253;SDS011;53339;51.378;0.094;2023-02-10T07:09:09;13.35;;;6.97;;
26253;SDS011;53339;51.378;0.094;2023-02-10T07:12:34;9.50;;;5.90;;
26253;SDS011;53339;51.378;0.094;2023-02-10T07:15:21;12.80;;;4.38;;
26253;SDS011;53339;51.378;0.094;2023-02-10T07:18:30;14.98;;;6.80;;
26253;SDS011;53339;51.378;0.094;2023-02-10T07:22:05;16.63;;;7.03;;
26253;SDS011;53339;51.378;0.094;2023-02-10T07:24:53;9.60;;;6.75;;
26253;SDS011;53339;51.378;0.094;2023-02-10T07:27:57;12.88;;;5.93;;
26253;SDS011;53339;51.378;0.094;2023-02-10T07:31:07;12.70;;;8.90;;
26253;SDS011;53339;51.378;0.094;2023-02-10T07:34:09;14.40;;;10.75;;
26253;SDS011;53339;51.378;0.094;2023-02-10T07:37:21;10.43;;;9.43;;
26253;SDS011;53339;51.378;0.094;2023-02-10T07:40:30;12.50;;;6.85;;
26253;SDS011;53339;51.378;0.094;2023-02-10T07:43:24;10.60;;;6.40;;
26253;SDS011;53339;51.378;0.094;2023-02-10T07:46:57;14.02;;;7.28;;
26253;SDS011;53339;51.378;0.094;2023-02-10T07:50:40;13.32;;;7.20;;
26253;SDS011;53339;51.378;0.094;2023-02-10T07:53:46;15.52;;;7.25;;
26253;SDS011;53339;51.378;0.094;2023-02-10T07:57:18;12.23;;;7.35;;
26253;SDS011;53339;51.378;0.094;2023-02-10T08:00:20;13.65;;;6.32;;
26253;SDS011;53339;51.378;0.094;2023-02-10T08:03:21;15.10;;;7.63;;
26253;SDS011;53339;51.378;0.094;2023-02-10T08:06:04;12.90;;;6.38;;
26253;SDS011;53339;51.378;0.094;2023-02-10T08:09:27;15.70;;;7.07;;
26253;SDS011;53339;51.378;0.094;2023-02-10T08:12:11;14.60;;;6.22;;
26253;SDS011;53339;51.378;0.094;2023-02-10T08:14:56;13.45;;;7.07;;
26253;SDS011;53339;51.378;0.094;2023-02-10T08:18:13;17.88;;;8.77;;
26253;SDS011;53339;51.378;0.094;2023-02-10T08:21:24;16.20;;;8.10;;
26253;SDS011;53339;51.378;0.094;2023-02-10T08:24:34;14.60;;;7.22;;
26253;SDS011;53339;51.378;0.094;2023-02-10T08:27:26;12.65;;;6.25;;
26253;SDS011;53339;51.378;0.094;2023-02-10T08:29:56;14.70;;;8.82;;
26253;SDS011;53339;51.378;0.094;2023-02-10T08:33:14;12.10;;;4.65;;
26253;SDS011;53339;51.378;0.094;2023-02-10T08:36:10;14.15;;;7.28;;
26253;SDS011;53339;51.378;0.094;2023-02-10T08:39:19;22.52;;;8.85;;
26253;SDS011;53339;51.378;0.094;2023-02-10T08:45:41;16.52;;;6.78;;
26253;SDS011;53339;51.378;0.094;2023-02-10T08:48:43;15.32;;;7.80;;
26253;SDS011;53339;51.378;0.094;2023-02-10T08:52:18;16.77;;;7.03;;
26253;SDS011;53339;51.378;0.094;2023-02-10T08:55:03;15.52;;;6.63;;
26253;SDS011;53339;51.378;0.094;2023-02-10T08:58:15;17.45;;;7.70;;
26253;SDS011;53339;51.378;0.094;2023-02-10T09:01:11;14.57;;;7.25;;
26253;SDS011;53339;51.378;0.094;2023-02-10T09:04:11;13.88;;;6.53;;
26253;SDS011;53339;51.378;0.094;2023-02-10T09:07:38;24.25;;;9.55;;
26253;SDS011;53339;51.378;0.094;2023-02-10T09:10:46;20.63;;;9.32;;
26253;SDS011;53339;51.378;0.094;2023-02-10T09:13:50;10.07;;;4.72;;
26253;SDS011;53339;51.378;0.094;2023-02-10T09:16:40;15.77;;;6.88;;
26253;SDS011;53339;51.378;0.094;2023-02-10T09:19:26;13.93;;;6.25;;
26253;SDS011;53339;51.378;0.094;2023-02-10T09:22:17;15.10;;;7.47;;
26253;SDS011;53339;51.378;0.094;2023-02-10T09:25:11;13.85;;;5.93;;
26253;SDS011;53339;51.378;0.094;2023-02-10T09:28:26;15.15;;;6.93;;
26253;SDS011;53339;51.378;0.094;2023-02-10T09:31:08;16.30;;;7.20;;
26253;SDS011;53339;51.378;0.094;2023-02-10T09:33:52;16.52;;;7.00;;
26253;SDS011;53339;51.378;0.094;2023-02-10T09:36:44;12.68;;;6.18;;
26253;SDS011;53339;51.378;0.094;2023-02-10T09:56:09;11.55;;;5.60;;
26253;SDS011;53339;51.378;0.094;2023-02-10T09:59:10;17.02;;;6.53;;
26253;SDS011;53339;51.378;0.094;2023-02-10T10:02:15;18.60;;;7.82;;
26253;SDS011;53339;51.378;0.094;2023-02-10T10:05:16;8.38;;;4.80;;
26253;SDS011;53339;51.378;0.094;2023-02-10T10:08:38;9.95;;;5.32;;
26253;SDS011;53339;51.378;0.094;2023-02-10T10:12:22;13.18;;;6.13;;
26253;SDS011;53339;51.378;0.094;2023-02-10T10:15:44;9.63;;;5.13;;
26253;SDS011;53339;51.378;0.094;2023-02-10T10:26:20;7.82;;;4.20;;
26253;SDS011;53339;51.378;0.094;2023-02-10T10:32:46;7.95;;;3.42;;
26253;SDS011;53339;51.378;0.094;2023-02-10T10:36:27;7.80;;;3.95;;
26253;SDS011;53339;51.378;0.094;2023-02-10T10:43:27;9.90;;;4.50;;
26253;SDS011;53339;51.378;0.094;2023-02-10T10:49:29;7.05;;;4.25;;
26253;SDS011;53339;51.378;0.094;2023-02-10T10:52:29;5.90;;;3.55;;
26253;SDS011;53339;51.378;0.094;2023-02-10T10:55:40;8.80;;;4.57;;
26253;SDS011;53339;51.378;0.094;2023-02-10T10:58:31;9.48;;;5.47;;
26253;SDS011;53339;51.378;0.094;2023-02-10T11:01:44;11.63;;;5.03;;
26253;SDS011;53339;51.378;0.094;2023-02-10T11:05:18;10.07;;;3.95;;
26253;SDS011;53339;51.378;0.094;2023-02-10T11:11:41;10.13;;;5.00;;
26253;SDS011;53339;51.378;0.094;2023-02-10T11:15:27;11.88;;;5.32;;
26253;SDS011;53339;51.378;0.094;2023-02-10T11:18:18;11.27;;;4.63;;
26253;SDS011;53339;51.378;0.094;2023-02-10T11:21:41;6.07;;;3.33;;
26253;SDS011;53339;51.378;0.094;2023-02-10T11:28:33;10.63;;;4.50;;
26253;SDS011;53339;51.378;0.094;2023-02-10T11:31:56;9.70;;;3.55;;
26253;SDS011;53339;51.378;0.094;2023-02-10T11:35:14;8.50;;;4.25;;
26253;SDS011;53339;51.378;0.094;2023-02-10T11:38:44;6.82;;;3.00;;
26253;SDS011;53339;51.378;0.094;2023-02-10T11:41:36;6.45;;;3.08;;
26253;SDS011;53339;51.378;0.094;2023-02-10T11:44:38;7.40;;;3.05;;
26253;SDS011;53339;51.378;0.094;2023-02-10T11:48:00;6.95;;;3.65;;
26253;SDS011;53339;51.378;0.094;2023-02-10T11:54:09;7.53;;;2.03;;
26253;SDS011;53339;51.378;0.094;2023-02-10T11:57:21;6.30;;;2.40;;
26253;SDS011;53339;51.378;0.094;2023-02-10T12:00:54;8.00;;;2.55;;
26253;SDS011;53339;51.378;0.094;2023-02-10T12:08:10;5.88;;;2.08;;
26253;SDS011;53339;51.378;0.094;2023-02-10T12:18:05;8.77;;;2.65;;
26253;SDS011;53339;51.378;0.094;2023-02-10T12:31:46;7.25;;;1.85;;
26253;SDS011;53339;51.378;0.094;2023-02-10T12:38:01;4.60;;;1.65;;
26253;SDS011;53339;51.378;0.094;2023-02-10T12:41:18;10.13;;;2.17;;
26253;SDS011;53339;51.378;0.094;2023-02-10T12:44:57;11.38;;;1.95;;
26253;SDS011;53339;51.378;0.094;2023-02-10T12:58:00;5.72;;;1.63;;
26253;SDS011;53339;51.378;0.094;2023-02-10T13:00:42;6.40;;;2.00;;
26253;SDS011;53339;51.378;0.094;2023-02-10T13:04:26;4.97;;;2.33;;
26253;SDS011;53339;51.378;0.094;2023-02-10T13:08:02;5.85;;;2.35;;
26253;SDS011;53339;51.378;0.094;2023-02-10T13:11:10;5.03;;;1.65;;
26253;SDS011;53339;51.378;0.094;2023-02-10T13:14:34;5.97;;;1.75;;
26253;SDS011;53339;51.378;0.094;2023-02-10T13:17:09;8.32;;;2.75;;
26253;SDS011;53339;51.378;0.094;2023-02-10T13:20:08;4.75;;;1.75;;
26253;SDS011;53339;51.378;0.094;2023-02-10T13:26:36;12.50;;;3.85;;
26253;SDS011;53339;51.378;0.094;2023-02-10T13:33:20;8.32;;;3.05;;
26253;SDS011;53339;51.378;0.094;2023-02-10T13:47:48;8.75;;;2.38;;
26253;SDS011;53339;51.378;0.094;2023-02-10T13:51:18;9.43;;;2.05;;
26253;SDS011;53339;51.378;0.094;2023-02-10T13:54:33;8.40;;;2.03;;
26253;SDS011;53339;51.378;0.094;2023-02-10T13:57:31;4.82;;;1.40;;
26253;SDS011;53339;51.378;0.094;2023-02-10T14:01:27;8.05;;;2.20;;
26253;SDS011;53339;51.378;0.094;2023-02-10T14:07:37;4.93;;;1.60;;
26253;SDS011;53339;51.378;0.094;2023-02-10T14:10:34;14.20;;;2.08;;
26253;SDS011;53339;51.378;0.094;2023-02-10T14:16:06;8.68;;;2.97;;
26253;SDS011;53339;51.378;0.094;2023-02-10T14:18:56;7.30;;;1.67;;
26253;SDS011;53339;51.378;0.094;2023-02-10T14:22:00;5.95;;;2.17;;
26253;SDS011;53339;51.378;0.094;2023-02-10T14:25:35;4.93;;;2.00;;
26253;SDS011;53339;51.378;0.094;2023-02-10T14:28:38;6.38;;;1.95;;
26253;SDS011;53339;51.378;0.094;2023-02-10T14:31:52;6.15;;;2.40;;
26253;SDS011;53339;51.378;0.094;2023-02-10T14:35:22;3.28;;;1.58;;
26253;SDS011;53339;51.378;0.094;2023-02-10T14:38:30;3.50;;;1.05;;
26253;SDS011;53339;51.378;0.094;2023-02-10T14:41:22;5.88;;;1.52;;
26253;SDS011;53339;51.378;0.094;2023-02-10T14:44:17;6.57;;;1.98;;
26253;SDS011;53339;51.378;0.094;2023-02-10T14:47:50;5.82;;;2.50;;
26253;SDS011;53339;51.378;0.094;2023-02-10T14:50:44;10.68;;;3.05;;
26253;SDS011;53339;51.378;0.094;2023-02-10T14:53:31;6.55;;;2.97;;
26253;SDS011;53339;51.378;0.094;2023-02-10T14:59:58;4.53;;;1.20;;
26253;SDS011;53339;51.378;0.094;2023-02-10T15:03:04;9.85;;;2.55;;
26253;SDS011;53339;51.378;0.094;2023-02-10T15:06:09;6.18;;;3.03;;
26253;SDS011;53339;51.378;0.094;2023-02-10T15:09:29;2.63;;;1.60;;
26253;SDS011;53339;51.378;0.094;2023-02-10T15:12:38;3.42;;;1.55;;
26253;SDS011;53339;51.378;0.094;2023-02-10T15:15:52;5.45;;;2.10;;
26253;SDS011;53339;51.378;0.094;2023-02-10T15:19:14;10.65;;;2.58;;
26253;SDS011;53339;51.378;0.094;2023-02-10T15:28:31;5.22;;;1.75;;
26253;SDS011;53339;51.378;0.094;2023-02-10T15:31:36;4.75;;;2.65;;
26253;SDS011;53339;51.378;0.094;2023-02-10T15:34:26;5.97;;;2.40;;
26253;SDS011;53339;51.378;0.094;2023-02-10T15:37:29;4.40;;;1.30;;
26253;SDS011;53339;51.378;0.094;2023-02-10T15:40:31;6.22;;;2.05;;
26253;SDS011;53339;51.378;0.094;2023-02-10T15:43:25;7.70;;;2.05;;
26253;SDS011;53339;51.378;0.094;2023-02-10T15:46:23;7.20;;;2.72;;
26253;SDS011;53339;51.378;0.094;2023-02-10T15:49:18;11.43;;;2.38;;
26253;SDS011;53339;51.378;0.094;2023-02-10T15:52:17;6.13;;;2.15;;
26253;SDS011;53339;51.378;0.094;2023-02-10T15:55:17;8.80;;;2.80;;
26253;SDS011;53339;51.378;0.094;2023-02-10T15:58:10;12.07;;;2.83;;
26253;SDS011;53339;51.378;0.094;2023-02-10T16:01:10;6.00;;;2.55;;
26253;SDS011;53339;51.378;0.094;2023-02-10T16:04:05;9.00;;;3.22;;
26253;SDS011;53339;51.378;0.094;2023-02-10T16:07:02;7.25;;;2.63;;
26253;SDS011;53339;51.378;0.094;2023-02-10T16:09:47;8.95;;;2.30;;
26253;SDS011;53339;51.378;0.094;2023-02-10T16:12:52;9.43;;;2.33;;
26253;SDS011;53339;51.378;0.094;2023-02-10T16:15:40;5.88;;;2.50;;
26253;SDS011;53339;51.378;0.094;2023-02-10T16:18:25;19.52;;;3.95;;
26253;SDS011;53339;51.378;0.094;2023-02-10T16:21:16;8.02;;;2.60;;
26253;SDS011;53339;51.378;0.094;2023-02-10T16:24:00;7.75;;;2.35;;
26253;SDS011;53339;51.378;0.094;2023-02-10T16:27:09;6.53;;;1.77;;
26253;SDS011;53339;51.378;0.094;2023-02-10T16:33:20;3.97;;;2.15;;
26253;SDS011;53339;51.378;0.094;2023-02-10T16:36:07;8.48;;;2.60;;
26253;SDS011;53339;51.378;0.094;2023-02-10T16:38:53;9.40;;;2.33;;
26253;SDS011;53339;51.378;0.094;2023-02-10T16:41:49;6.65;;;2.22;;
26253;SDS011;53339;51.378;0.094;2023-02-10T16:44:28;6.82;;;2.22;;
26253;SDS011;53339;51.378;0.094;2023-02-10T16:47:25;8.77;;;2.63;;
26253;SDS011;53339;51.378;0.094;2023-02-10T16:53:18;9.43;;;2.58;;
26253;SDS011;53339;51.378;0.094;2023-02-10T16:56:14;7.10;;;2.55;;
26253;SDS011;53339;51.378;0.094;2023-02-10T17:02:51;3.72;;;1.70;;
26253;SDS011;53339;51.378;0.094;2023-02-10T17:06:15;6.30;;;2.65;;
26253;SDS011;53339;51.378;0.094;2023-02-10T17:09:19;6.13;;;1.80;;
26253;SDS011;53339;51.378;0.094;2023-02-10T17:12:01;8.38;;;3.58;;
26253;SDS011;53339;51.378;0.094;2023-02-10T17:15:17;9.65;;;3.47;;
26253;SDS011;53339;51.378;0.094;2023-02-10T17:18:03;5.45;;;2.67;;
26253;SDS011;53339;51.378;0.094;2023-02-10T17:21:16;7.00;;;2.58;;
26253;SDS011;53339;51.378;0.094;2023-02-10T17:24:22;5.90;;;2.80;;
26253;SDS011;53339;51.378;0.094;2023-02-10T17:31:13;9.40;;;3.58;;
26253;SDS011;53339;51.378;0.094;2023-02-10T17:35:00;11.85;;;3.63;;
26253;SDS011;53339;51.378;0.094;2023-02-10T17:37:56;7.95;;;2.63;;
26253;SDS011;53339;51.378;0.094;2023-02-10T17:41:07;8.68;;;3.55;;
26253;SDS011;53339;51.378;0.094;2023-02-10T17:44:15;8.88;;;2.95;;
26253;SDS011;53339;51.378;0.094;2023-02-10T17:47:21;10.82;;;3.67;;
26253;SDS011;53339;51.378;0.094;2023-02-10T17:50:14;12.63;;;3.83;;
26253;SDS011;53339;51.378;0.094;2023-02-10T17:53:22;6.20;;;2.33;;
26253;SDS011;53339;51.378;0.094;2023-02-10T17:56:51;4.70;;;2.08;;
26253;SDS011;53339;51.378;0.094;2023-02-10T17:59:39;4.28;;;2.83;;
26253;SDS011;53339;51.378;0.094;2023-02-10T18:03:04;8.57;;;3.22;;
26253;SDS011;53339;51.378;0.094;2023-02-10T18:06:24;10.02;;;2.72;;
26253;SDS011;53339;51.378;0.094;2023-02-10T18:09:07;7.65;;;3.03;;
26253;SDS011;53339;51.378;0.094;2023-02-10T18:12:14;8.13;;;4.65;;
26253;SDS011;53339;51.378;0.094;2023-02-10T18:15:48;7.50;;;2.28;;
26253;SDS011;53339;51.378;0.094;2023-02-10T18:19:17;7.28;;;2.22;;
26253;SDS011;53339;51.378;0.094;2023-02-10T18:22:53;4.10;;;2.30;;
26253;SDS011;53339;51.378;0.094;2023-02-10T18:25:48;4.78;;;2.30;;
26253;SDS011;53339;51.378;0.094;2023-02-10T18:29:21;4.80;;;2.80;;
26253;SDS011;53339;51.378;0.094;2023-02-10T18:32:12;6.28;;;2.92;;
26253;SDS011;53339;51.378;0.094;2023-02-10T18:35:56;6.05;;;3.42;;
26253;SDS011;53339;51.378;0.094;2023-02-10T18:38:59;5.75;;;2.47;;
26253;SDS011;53339;51.378;0.094;2023-02-10T18:42:19;11.98;;;3.25;;
26253;SDS011;53339;51.378;0.094;2023-02-10T18:45:27;4.75;;;2.17;;
26253;SDS011;53339;51.378;0.094;2023-02-10T18:48:24;7.25;;;2.72;;
26253;SDS011;53339;51.378;0.094;2023-02-10T18:51:51;8.90;;;2.53;;
26253;SDS011;53339;51.378;0.094;2023-02-10T18:54:49;8.73;;;3.83;;
26253;SDS011;53339;51.378;0.094;2023-02-10T18:57:43;13.35;;;3.33;;
26253;SDS011;53339;51.378;0.094;2023-02-10T19:03:49;3.92;;;2.30;;
26253;SDS011;53339;51.378;0.094;2023-02-10T19:07:02;6.75;;;3.40;;
26253;SDS011;53339;51.378;0.094;2023-02-10T19:09:55;9.68;;;3.28;;
26253;SDS011;53339;51.378;0.094;2023-02-10T19:13:03;12.95;;;3.60;;
26253;SDS011;53339;51.378;0.094;2023-02-10T19:15:46;10.00;;;2.90;;
26253;SDS011;53339;51.378;0.094;2023-02-10T19:19:17;10.77;;;2.30;;
26253;SDS011;53339;51.378;0.094;2023-02-10T19:22:25;11.27;;;2.35;;
26253;SDS011;53339;51.378;0.094;2023-02-10T19:25:36;7.93;;;2.95;;
26253;SDS011;53339;51.378;0.094;2023-02-10T19:28:44;10.43;;;3.05;;
26253;SDS011;53339;51.378;0.094;2023-02-10T19:31:30;6.00;;;3.13;;
26253;SDS011;53339;51.378;0.094;2023-02-10T19:38:06;7.43;;;2.60;;
26253;SDS011;53339;51.378;0.094;2023-02-10T19:41:22;6.25;;;2.72;;
26253;SDS011;53339;51.378;0.094;2023-02-10T19:44:25;8.77;;;3.08;;
26253;SDS011;53339;51.378;0.094;2023-02-10T19:47:40;10.02;;;3.08;;
26253;SDS011;53339;51.378;0.094;2023-02-10T19:50:55;5.00;;;2.85;;
26253;SDS011;53339;51.378;0.094;2023-02-10T19:53:38;6.10;;;3.25;;
26253;SDS011;53339;51.378;0.094;2023-02-10T19:56:44;13.40;;;4.13;;
26253;SDS011;53339;51.378;0.094;2023-02-10T20:03:49;6.68;;;2.05;;
26253;SDS011;53339;51.378;0.094;2023-02-10T20:07:04;5.60;;;3.05;;
26253;SDS011;53339;51.378;0.094;2023-02-10T20:09:54;7.60;;;2.85;;
26253;SDS011;53339;51.378;0.094;2023-02-10T20:12:45;6.28;;;2.40;;
26253;SDS011;53339;51.378;0.094;2023-02-10T20:15:56;4.97;;;2.45;;
26253;SDS011;53339;51.378;0.094;2023-02-10T20:19:12;9.20;;;3.15;;
26253;SDS011;53339;51.378;0.094;2023-02-10T20:22:41;8.38;;;3.55;;
26253;SDS011;53339;51.378;0.094;2023-02-10T20:25:36;7.38;;;3.20;;
26253;SDS011;53339;51.378;0.094;2023-02-10T20:29:06;13.23;;;3.90;;
26253;SDS011;53339;51.378;0.094;2023-02-10T20:36:04;8.82;;;4.30;;
26253;SDS011;53339;51.378;0.094;2023-02-10T20:43:26;7.43;;;2.80;;
26253;SDS011;53339;51.378;0.094;2023-02-10T20:46:34;5.75;;;2.80;;
26253;SDS011;53339;51.378;0.094;2023-02-10T20:50:06;7.82;;;3.00;;
26253;SDS011;53339;51.378;0.094;2023-02-10T20:53:27;9.55;;;3.35;;
26253;SDS011;53339;51.378;0.094;2023-02-10T20:56:53;5.10;;;3.05;;
26253;SDS011;53339;51.378;0.094;2023-02-10T20:59:58;8.27;;;3.80;;
26253;SDS011;53339;51.378;0.094;2023-02-10T21:03:03;6.30;;;2.67;;
26253;SDS011;53339;51.378;0.094;2023-02-10T21:06:21;3.40;;;2.17;;
26253;SDS011;53339;51.378;0.094;2023-02-10T21:09:21;6.97;;;3.90;;
26253;SDS011;53339;51.378;0.094;2023-02-10T21:12:43;8.90;;;2.90;;
26253;SDS011;53339;51.378;0.094;2023-02-10T21:15:59;4.57;;;3.60;;
26253;SDS011;53339;51.378;0.094;2023-02-10T21:19:03;7.82;;;3.22;;
26253;SDS011;53339;51.378;0.094;2023-02-10T21:21:54;9.20;;;3.83;;
26253;SDS011;53339;51.378;0.094;2023-02-10T21:24:57;6.10;;;3.05;;
26253;SDS011;53339;51.378;0.094;2023-02-10T21:28:04;5.10;;;3.13;;
26253;SDS011;53339;51.378;0.094;2023-02-10T21:31:19;4.55;;;2.92;;
26253;SDS011;53339;51.378;0.094;2023-02-10T21:38:02;6.15;;;3.88;;
26253;SDS011;53339;51.378;0.094;2023-02-10T21:41:34;7.07;;;4.63;;
26253;SDS011;53339;51.378;0.094;2023-02-10T21:45:21;4.97;;;3.75;;
26253;SDS011;53339;51.378;0.094;2023-02-10T21:48:44;6.60;;;3.10;;
26253;SDS011;53339;51.378;0.094;2023-02-10T21:55:39;5.10;;;3.83;;
26253;SDS011;53339;51.378;0.094;2023-02-10T21:58:56;7.75;;;3.70;;
26253;SDS011;53339;51.378;0.094;2023-02-10T22:01:26;7.93;;;3.83;;
26253;SDS011;53339;51.378;0.094;2023-02-10T22:08:15;7.13;;;3.30;;
26253;SDS011;53339;51.378;0.094;2023-02-10T22:10:44;6.75;;;3.25;;
26253;SDS011;53339;51.378;0.094;2023-02-10T22:13:49;5.88;;;3.20;;
26253;SDS011;53339;51.378;0.094;2023-02-10T22:17:04;8.23;;;4.10;;
26253;SDS011;53339;51.378;0.094;2023-02-10T22:20:15;7.13;;;4.43;;
26253;SDS011;53339;51.378;0.094;2023-02-10T22:23:54;4.78;;;3.03;;
26253;SDS011;53339;51.378;0.094;2023-02-10T22:26:44;8.25;;;4.43;;